sensor_id;sensor_type;location;lat;lon;timestamp;P1;durP1;ratioP1;P2;durP2;ratioP2
6842;SDS011;3460;52.028;8.916;2023-07-22T00:00:14;14.03;;;10.80;;
6842;SDS011;3460;52.028;8.916;2023-07-22T00:02:42;14.00;;;10.87;;
6842;SDS011;3460;52.028;8.916;2023-07-22T00:05:09;12.63;;;9.73;;
6842;SDS011;3460;52.028;8.916;2023-07-22T00:07:36;15.47;;;10.53;;
6842;SDS011;3460;52.028;8.916;2023-07-22T00:10:03;15.07;;;11.43;;
6842;SDS011;3460;52.028;8.916;2023-07-22T00:12:31;13.47;;;10.10;;
6842;SDS011;3460;52.028;8.916;2023-07-22T00:14:59;14.00;;;10.93;;
6842;SDS011;3460;52.028;8.916;2023-07-22T00:17:26;16.33;;;10.93;;
6842;SDS011;3460;52.028;8.916;2023-07-22T00:19:53;12.97;;;10.70;;
6842;SDS011;3460;52.028;8.916;2023-07-22T00:22:20;13.90;;;11.23;;
6842;SDS011;3460;52.028;8.916;2023-07-22T00:24:47;15.87;;;10.77;;
6842;SDS011;3460;52.028;8.916;2023-07-22T00:27:14;16.33;;;10.53;;
6842;SDS011;3460;52.028;8.916;2023-07-22T00:29:43;16.07;;;10.80;;
6842;SDS011;3460;52.028;8.916;2023-07-22T00:32:09;15.43;;;11.53;;
6842;SDS011;3460;52.028;8.916;2023-07-22T00:34:36;16.87;;;10.20;;
6842;SDS011;3460;52.028;8.916;2023-07-22T00:37:04;17.47;;;10.60;;
6842;SDS011;3460;52.028;8.916;2023-07-22T00:39:30;19.43;;;11.53;;
6842;SDS011;3460;52.028;8.916;2023-07-22T00:41:57;17.93;;;10.80;;
6842;SDS011;3460;52.028;8.916;2023-07-22T00:44:25;18.57;;;10.80;;
6842;SDS011;3460;52.028;8.916;2023-07-22T00:46:54;14.40;;;10.20;;
6842;SDS011;3460;52.028;8.916;2023-07-22T00:49:23;20.30;;;10.83;;
6842;SDS011;3460;52.028;8.916;2023-07-22T00:51:51;13.50;;;10.40;;
6842;SDS011;3460;52.028;8.916;2023-07-22T00:54:18;15.07;;;10.27;;
6842;SDS011;3460;52.028;8.916;2023-07-22T00:56:45;16.43;;;10.87;;
6842;SDS011;3460;52.028;8.916;2023-07-22T00:59:14;15.63;;;10.27;;
6842;SDS011;3460;52.028;8.916;2023-07-22T01:01:42;15.53;;;10.90;;
6842;SDS011;3460;52.028;8.916;2023-07-22T01:04:13;14.93;;;10.20;;
6842;SDS011;3460;52.028;8.916;2023-07-22T01:06:40;13.00;;;9.70;;
6842;SDS011;3460;52.028;8.916;2023-07-22T01:09:09;17.27;;;10.60;;
6842;SDS011;3460;52.028;8.916;2023-07-22T01:11:36;15.93;;;10.63;;
6842;SDS011;3460;52.028;8.916;2023-07-22T01:14:03;18.07;;;10.47;;
6842;SDS011;3460;52.028;8.916;2023-07-22T01:16:30;16.83;;;9.57;;
6842;SDS011;3460;52.028;8.916;2023-07-22T01:18:57;16.43;;;10.77;;
6842;SDS011;3460;52.028;8.916;2023-07-22T01:21:25;14.23;;;10.10;;
6842;SDS011;3460;52.028;8.916;2023-07-22T01:23:55;13.77;;;10.00;;
6842;SDS011;3460;52.028;8.916;2023-07-22T01:26:22;17.30;;;10.90;;
6842;SDS011;3460;52.028;8.916;2023-07-22T01:28:49;15.97;;;10.50;;
6842;SDS011;3460;52.028;8.916;2023-07-22T01:31:16;18.07;;;10.07;;
6842;SDS011;3460;52.028;8.916;2023-07-22T01:33:42;16.83;;;10.50;;
6842;SDS011;3460;52.028;8.916;2023-07-22T01:36:10;15.90;;;10.40;;
6842;SDS011;3460;52.028;8.916;2023-07-22T01:38:37;13.47;;;9.80;;
6842;SDS011;3460;52.028;8.916;2023-07-22T01:41:05;19.50;;;9.60;;
6842;SDS011;3460;52.028;8.916;2023-07-22T01:43:32;15.87;;;10.03;;
6842;SDS011;3460;52.028;8.916;2023-07-22T01:45:59;14.30;;;9.73;;
6842;SDS011;3460;52.028;8.916;2023-07-22T01:48:26;16.60;;;9.93;;
6842;SDS011;3460;52.028;8.916;2023-07-22T01:50:53;20.10;;;9.43;;
6842;SDS011;3460;52.028;8.916;2023-07-22T01:53:20;17.77;;;9.77;;
6842;SDS011;3460;52.028;8.916;2023-07-22T01:55:47;16.47;;;9.30;;
6842;SDS011;3460;52.028;8.916;2023-07-22T01:58:15;16.33;;;9.37;;
6842;SDS011;3460;52.028;8.916;2023-07-22T02:00:42;13.47;;;9.17;;
6842;SDS011;3460;52.028;8.916;2023-07-22T02:03:08;13.70;;;9.43;;
6842;SDS011;3460;52.028;8.916;2023-07-22T02:05:35;17.63;;;9.57;;
6842;SDS011;3460;52.028;8.916;2023-07-22T02:08:02;15.83;;;9.97;;
6842;SDS011;3460;52.028;8.916;2023-07-22T02:10:29;15.27;;;9.47;;
6842;SDS011;3460;52.028;8.916;2023-07-22T02:12:56;15.27;;;9.83;;
6842;SDS011;3460;52.028;8.916;2023-07-22T02:15:24;18.40;;;9.80;;
6842;SDS011;3460;52.028;8.916;2023-07-22T02:17:51;16.77;;;9.83;;
6842;SDS011;3460;52.028;8.916;2023-07-22T02:20:20;14.70;;;9.43;;
6842;SDS011;3460;52.028;8.916;2023-07-22T02:22:47;16.97;;;9.63;;
6842;SDS011;3460;52.028;8.916;2023-07-22T02:25:14;15.37;;;9.20;;
6842;SDS011;3460;52.028;8.916;2023-07-22T02:27:42;20.57;;;9.37;;
6842;SDS011;3460;52.028;8.916;2023-07-22T02:30:09;15.20;;;9.47;;
6842;SDS011;3460;52.028;8.916;2023-07-22T02:32:38;18.63;;;9.80;;
6842;SDS011;3460;52.028;8.916;2023-07-22T02:35:06;21.53;;;9.43;;
6842;SDS011;3460;52.028;8.916;2023-07-22T02:37:33;16.53;;;9.30;;
6842;SDS011;3460;52.028;8.916;2023-07-22T02:40:01;16.13;;;9.47;;
6842;SDS011;3460;52.028;8.916;2023-07-22T02:42:32;12.37;;;8.87;;
6842;SDS011;3460;52.028;8.916;2023-07-22T02:45:00;17.23;;;10.27;;
6842;SDS011;3460;52.028;8.916;2023-07-22T02:47:27;13.17;;;9.47;;
6842;SDS011;3460;52.028;8.916;2023-07-22T02:49:55;20.97;;;9.93;;
6842;SDS011;3460;52.028;8.916;2023-07-22T02:52:22;14.43;;;9.47;;
6842;SDS011;3460;52.028;8.916;2023-07-22T02:55:03;21.90;;;9.60;;
6842;SDS011;3460;52.028;8.916;2023-07-22T02:57:32;13.20;;;8.47;;
6842;SDS011;3460;52.028;8.916;2023-07-22T02:59:58;20.77;;;9.37;;
6842;SDS011;3460;52.028;8.916;2023-07-22T03:02:25;19.10;;;9.13;;
6842;SDS011;3460;52.028;8.916;2023-07-22T03:04:52;23.00;;;10.00;;
6842;SDS011;3460;52.028;8.916;2023-07-22T03:07:20;19.80;;;9.43;;
6842;SDS011;3460;52.028;8.916;2023-07-22T03:09:47;23.47;;;9.40;;
6842;SDS011;3460;52.028;8.916;2023-07-22T03:12:14;14.23;;;8.97;;
6842;SDS011;3460;52.028;8.916;2023-07-22T03:14:41;21.67;;;9.43;;
6842;SDS011;3460;52.028;8.916;2023-07-22T03:17:08;19.10;;;9.07;;
6842;SDS011;3460;52.028;8.916;2023-07-22T03:19:35;17.27;;;10.27;;
6842;SDS011;3460;52.028;8.916;2023-07-22T03:22:01;17.53;;;9.70;;
6842;SDS011;3460;52.028;8.916;2023-07-22T03:24:30;13.47;;;8.47;;
6842;SDS011;3460;52.028;8.916;2023-07-22T03:26:56;14.53;;;8.60;;
6842;SDS011;3460;52.028;8.916;2023-07-22T03:29:23;16.87;;;9.27;;
6842;SDS011;3460;52.028;8.916;2023-07-22T03:31:50;20.07;;;10.07;;
6842;SDS011;3460;52.028;8.916;2023-07-22T03:34:17;14.23;;;9.03;;
6842;SDS011;3460;52.028;8.916;2023-07-22T03:36:44;20.93;;;9.47;;
6842;SDS011;3460;52.028;8.916;2023-07-22T03:39:11;12.87;;;8.23;;
6842;SDS011;3460;52.028;8.916;2023-07-22T03:41:39;17.27;;;9.30;;
6842;SDS011;3460;52.028;8.916;2023-07-22T03:44:06;16.57;;;9.70;;
6842;SDS011;3460;52.028;8.916;2023-07-22T03:46:33;18.03;;;9.60;;
6842;SDS011;3460;52.028;8.916;2023-07-22T03:49:00;17.60;;;10.00;;
6842;SDS011;3460;52.028;8.916;2023-07-22T03:51:26;16.17;;;9.50;;
6842;SDS011;3460;52.028;8.916;2023-07-22T03:53:53;17.93;;;10.37;;
6842;SDS011;3460;52.028;8.916;2023-07-22T03:56:20;15.13;;;9.10;;
6842;SDS011;3460;52.028;8.916;2023-07-22T03:58:50;17.73;;;10.03;;
6842;SDS011;3460;52.028;8.916;2023-07-22T04:01:17;16.90;;;10.20;;
6842;SDS011;3460;52.028;8.916;2023-07-22T04:03:44;16.50;;;9.93;;
6842;SDS011;3460;52.028;8.916;2023-07-22T04:06:11;13.53;;;9.67;;
6842;SDS011;3460;52.028;8.916;2023-07-22T04:08:38;15.60;;;8.93;;
6842;SDS011;3460;52.028;8.916;2023-07-22T04:11:04;19.00;;;9.03;;
6842;SDS011;3460;52.028;8.916;2023-07-22T04:13:31;16.10;;;8.93;;
6842;SDS011;3460;52.028;8.916;2023-07-22T04:15:59;23.17;;;9.90;;
6842;SDS011;3460;52.028;8.916;2023-07-22T04:18:26;17.43;;;9.80;;
6842;SDS011;3460;52.028;8.916;2023-07-22T04:20:58;12.50;;;9.10;;
6842;SDS011;3460;52.028;8.916;2023-07-22T04:23:25;13.23;;;9.17;;
6842;SDS011;3460;52.028;8.916;2023-07-22T04:25:52;14.40;;;9.23;;
6842;SDS011;3460;52.028;8.916;2023-07-22T04:28:19;15.43;;;9.27;;
6842;SDS011;3460;52.028;8.916;2023-07-22T04:30:54;15.83;;;9.80;;
6842;SDS011;3460;52.028;8.916;2023-07-22T04:33:22;17.43;;;9.63;;
6842;SDS011;3460;52.028;8.916;2023-07-22T04:35:49;15.57;;;10.50;;
6842;SDS011;3460;52.028;8.916;2023-07-22T04:38:19;18.40;;;9.53;;
6842;SDS011;3460;52.028;8.916;2023-07-22T04:40:45;17.50;;;9.50;;
6842;SDS011;3460;52.028;8.916;2023-07-22T04:43:12;15.90;;;8.73;;
6842;SDS011;3460;52.028;8.916;2023-07-22T04:45:39;17.63;;;9.17;;
6842;SDS011;3460;52.028;8.916;2023-07-22T04:48:06;17.77;;;9.10;;
6842;SDS011;3460;52.028;8.916;2023-07-22T04:50:34;17.30;;;9.33;;
6842;SDS011;3460;52.028;8.916;2023-07-22T04:53:02;19.63;;;10.40;;
6842;SDS011;3460;52.028;8.916;2023-07-22T04:55:29;15.30;;;9.73;;
6842;SDS011;3460;52.028;8.916;2023-07-22T04:57:57;17.37;;;9.20;;
6842;SDS011;3460;52.028;8.916;2023-07-22T05:00:24;16.77;;;9.50;;
6842;SDS011;3460;52.028;8.916;2023-07-22T05:02:51;21.53;;;9.97;;
6842;SDS011;3460;52.028;8.916;2023-07-22T05:05:20;16.13;;;9.73;;
6842;SDS011;3460;52.028;8.916;2023-07-22T05:07:49;18.87;;;10.00;;
6842;SDS011;3460;52.028;8.916;2023-07-22T05:10:16;19.73;;;10.57;;
6842;SDS011;3460;52.028;8.916;2023-07-22T05:12:44;21.03;;;10.87;;
6842;SDS011;3460;52.028;8.916;2023-07-22T05:15:11;21.33;;;11.03;;
6842;SDS011;3460;52.028;8.916;2023-07-22T05:17:39;16.93;;;10.40;;
6842;SDS011;3460;52.028;8.916;2023-07-22T05:20:06;16.00;;;10.17;;
6842;SDS011;3460;52.028;8.916;2023-07-22T05:22:35;19.13;;;9.77;;
6842;SDS011;3460;52.028;8.916;2023-07-22T05:25:04;17.70;;;11.03;;
6842;SDS011;3460;52.028;8.916;2023-07-22T05:27:31;19.83;;;10.33;;
6842;SDS011;3460;52.028;8.916;2023-07-22T05:29:58;18.70;;;10.93;;
6842;SDS011;3460;52.028;8.916;2023-07-22T05:32:25;16.80;;;10.83;;
6842;SDS011;3460;52.028;8.916;2023-07-22T05:34:54;17.67;;;10.47;;
6842;SDS011;3460;52.028;8.916;2023-07-22T05:37:21;17.47;;;10.10;;
6842;SDS011;3460;52.028;8.916;2023-07-22T05:39:48;18.00;;;9.97;;
6842;SDS011;3460;52.028;8.916;2023-07-22T05:42:16;17.43;;;10.93;;
6842;SDS011;3460;52.028;8.916;2023-07-22T05:44:43;16.10;;;9.77;;
6842;SDS011;3460;52.028;8.916;2023-07-22T05:47:10;19.27;;;10.47;;
6842;SDS011;3460;52.028;8.916;2023-07-22T05:49:37;14.50;;;10.00;;
6842;SDS011;3460;52.028;8.916;2023-07-22T05:52:04;17.03;;;10.77;;
6842;SDS011;3460;52.028;8.916;2023-07-22T05:54:31;17.30;;;10.50;;
6842;SDS011;3460;52.028;8.916;2023-07-22T05:56:58;16.77;;;10.63;;
6842;SDS011;3460;52.028;8.916;2023-07-22T05:59:26;19.07;;;11.07;;
6842;SDS011;3460;52.028;8.916;2023-07-22T06:01:53;17.07;;;10.23;;
6842;SDS011;3460;52.028;8.916;2023-07-22T06:04:19;17.33;;;9.97;;
6842;SDS011;3460;52.028;8.916;2023-07-22T06:06:46;17.67;;;10.93;;
6842;SDS011;3460;52.028;8.916;2023-07-22T06:09:13;18.57;;;10.60;;
6842;SDS011;3460;52.028;8.916;2023-07-22T06:11:40;19.07;;;11.30;;
6842;SDS011;3460;52.028;8.916;2023-07-22T06:14:07;18.20;;;10.00;;
6842;SDS011;3460;52.028;8.916;2023-07-22T06:16:35;16.60;;;10.27;;
6842;SDS011;3460;52.028;8.916;2023-07-22T06:19:03;14.57;;;10.43;;
6842;SDS011;3460;52.028;8.916;2023-07-22T06:21:30;17.83;;;10.20;;
6842;SDS011;3460;52.028;8.916;2023-07-22T06:23:57;16.50;;;10.73;;
6842;SDS011;3460;52.028;8.916;2023-07-22T06:26:23;14.80;;;10.00;;
6842;SDS011;3460;52.028;8.916;2023-07-22T06:28:50;17.93;;;9.83;;
6842;SDS011;3460;52.028;8.916;2023-07-22T06:31:17;15.87;;;9.77;;
6842;SDS011;3460;52.028;8.916;2023-07-22T06:33:45;15.60;;;10.20;;
6842;SDS011;3460;52.028;8.916;2023-07-22T06:36:12;14.07;;;9.70;;
6842;SDS011;3460;52.028;8.916;2023-07-22T06:38:39;16.03;;;10.60;;
6842;SDS011;3460;52.028;8.916;2023-07-22T06:41:06;17.43;;;10.57;;
6842;SDS011;3460;52.028;8.916;2023-07-22T06:43:32;15.37;;;9.73;;
6842;SDS011;3460;52.028;8.916;2023-07-22T06:45:59;17.03;;;10.57;;
6842;SDS011;3460;52.028;8.916;2023-07-22T06:48:26;15.77;;;10.10;;
6842;SDS011;3460;52.028;8.916;2023-07-22T06:50:54;15.93;;;10.17;;
6842;SDS011;3460;52.028;8.916;2023-07-22T06:53:21;17.50;;;10.57;;
6842;SDS011;3460;52.028;8.916;2023-07-22T06:55:48;18.20;;;10.97;;
6842;SDS011;3460;52.028;8.916;2023-07-22T06:58:16;14.87;;;10.60;;
6842;SDS011;3460;52.028;8.916;2023-07-22T07:00:42;16.13;;;9.30;;
6842;SDS011;3460;52.028;8.916;2023-07-22T07:03:09;16.47;;;9.80;;
6842;SDS011;3460;52.028;8.916;2023-07-22T07:05:36;15.20;;;9.90;;
6842;SDS011;3460;52.028;8.916;2023-07-22T07:08:07;18.43;;;10.33;;
6842;SDS011;3460;52.028;8.916;2023-07-22T07:10:36;14.50;;;10.70;;
6842;SDS011;3460;52.028;8.916;2023-07-22T07:13:04;16.30;;;10.20;;
6842;SDS011;3460;52.028;8.916;2023-07-22T07:15:31;15.37;;;9.93;;
6842;SDS011;3460;52.028;8.916;2023-07-22T07:17:58;13.73;;;10.07;;
6842;SDS011;3460;52.028;8.916;2023-07-22T07:20:24;18.03;;;10.17;;
6842;SDS011;3460;52.028;8.916;2023-07-22T07:22:51;16.40;;;10.00;;
6842;SDS011;3460;52.028;8.916;2023-07-22T07:25:19;15.70;;;10.53;;
6842;SDS011;3460;52.028;8.916;2023-07-22T07:27:46;14.33;;;9.57;;
6842;SDS011;3460;52.028;8.916;2023-07-22T07:30:13;14.50;;;9.30;;
6842;SDS011;3460;52.028;8.916;2023-07-22T07:32:40;13.90;;;9.23;;
6842;SDS011;3460;52.028;8.916;2023-07-22T07:35:07;14.07;;;10.10;;
6842;SDS011;3460;52.028;8.916;2023-07-22T07:37:35;13.57;;;9.47;;
6842;SDS011;3460;52.028;8.916;2023-07-22T07:40:02;12.30;;;9.10;;
6842;SDS011;3460;52.028;8.916;2023-07-22T07:42:30;12.27;;;9.20;;
6842;SDS011;3460;52.028;8.916;2023-07-22T07:44:57;12.47;;;9.17;;
6842;SDS011;3460;52.028;8.916;2023-07-22T07:47:24;13.07;;;9.57;;
6842;SDS011;3460;52.028;8.916;2023-07-22T07:49:51;12.50;;;9.43;;
6842;SDS011;3460;52.028;8.916;2023-07-22T07:52:18;13.57;;;8.70;;
6842;SDS011;3460;52.028;8.916;2023-07-22T07:54:44;11.60;;;8.63;;
6842;SDS011;3460;52.028;8.916;2023-07-22T07:57:11;12.50;;;9.17;;
6842;SDS011;3460;52.028;8.916;2023-07-22T07:59:39;13.40;;;8.60;;
6842;SDS011;3460;52.028;8.916;2023-07-22T08:02:06;10.87;;;8.03;;
6842;SDS011;3460;52.028;8.916;2023-07-22T08:04:35;12.90;;;8.43;;
6842;SDS011;3460;52.028;8.916;2023-07-22T08:07:02;12.60;;;8.63;;
6842;SDS011;3460;52.028;8.916;2023-07-22T08:09:29;13.93;;;8.60;;
6842;SDS011;3460;52.028;8.916;2023-07-22T08:11:56;13.67;;;9.07;;
6842;SDS011;3460;52.028;8.916;2023-07-22T08:14:23;13.53;;;8.43;;
6842;SDS011;3460;52.028;8.916;2023-07-22T08:16:51;13.53;;;9.40;;
6842;SDS011;3460;52.028;8.916;2023-07-22T08:19:19;14.77;;;9.47;;
6842;SDS011;3460;52.028;8.916;2023-07-22T08:21:46;12.63;;;8.53;;
6842;SDS011;3460;52.028;8.916;2023-07-22T08:24:13;13.73;;;8.73;;
6842;SDS011;3460;52.028;8.916;2023-07-22T08:26:40;13.17;;;9.17;;
6842;SDS011;3460;52.028;8.916;2023-07-22T08:29:07;13.57;;;9.33;;
6842;SDS011;3460;52.028;8.916;2023-07-22T08:31:34;13.73;;;10.27;;
6842;SDS011;3460;52.028;8.916;2023-07-22T08:34:02;15.70;;;8.90;;
6842;SDS011;3460;52.028;8.916;2023-07-22T08:36:29;12.23;;;8.77;;
6842;SDS011;3460;52.028;8.916;2023-07-22T08:38:56;16.77;;;9.17;;
6842;SDS011;3460;52.028;8.916;2023-07-22T08:41:22;16.00;;;9.20;;
6842;SDS011;3460;52.028;8.916;2023-07-22T08:43:50;13.77;;;9.00;;
6842;SDS011;3460;52.028;8.916;2023-07-22T08:46:18;15.13;;;9.07;;
6842;SDS011;3460;52.028;8.916;2023-07-22T08:48:46;14.20;;;9.43;;
6842;SDS011;3460;52.028;8.916;2023-07-22T08:51:17;13.83;;;9.47;;
6842;SDS011;3460;52.028;8.916;2023-07-22T08:53:45;16.27;;;8.33;;
6842;SDS011;3460;52.028;8.916;2023-07-22T08:56:12;12.70;;;8.80;;
6842;SDS011;3460;52.028;8.916;2023-07-22T08:58:39;13.63;;;8.33;;
6842;SDS011;3460;52.028;8.916;2023-07-22T09:01:09;11.03;;;7.97;;
6842;SDS011;3460;52.028;8.916;2023-07-22T09:03:37;20.30;;;13.87;;
6842;SDS011;3460;52.028;8.916;2023-07-22T09:06:05;21.03;;;15.87;;
6842;SDS011;3460;52.028;8.916;2023-07-22T09:08:34;12.47;;;7.73;;
6842;SDS011;3460;52.028;8.916;2023-07-22T09:11:01;10.30;;;7.83;;
6842;SDS011;3460;52.028;8.916;2023-07-22T09:13:28;11.43;;;7.93;;
6842;SDS011;3460;52.028;8.916;2023-07-22T09:15:56;10.70;;;7.50;;
6842;SDS011;3460;52.028;8.916;2023-07-22T09:18:24;15.37;;;8.20;;
6842;SDS011;3460;52.028;8.916;2023-07-22T09:20:51;13.87;;;8.77;;
6842;SDS011;3460;52.028;8.916;2023-07-22T09:23:18;12.37;;;8.17;;
6842;SDS011;3460;52.028;8.916;2023-07-22T09:26:08;13.20;;;8.33;;
6842;SDS011;3460;52.028;8.916;2023-07-22T09:28:52;12.63;;;8.67;;
6842;SDS011;3460;52.028;8.916;2023-07-22T09:31:20;12.70;;;8.10;;
6842;SDS011;3460;52.028;8.916;2023-07-22T09:33:47;11.13;;;7.60;;
6842;SDS011;3460;52.028;8.916;2023-07-22T09:36:15;12.10;;;7.90;;
6842;SDS011;3460;52.028;8.916;2023-07-22T09:38:43;14.37;;;8.40;;
6842;SDS011;3460;52.028;8.916;2023-07-22T09:41:11;12.03;;;8.47;;
6842;SDS011;3460;52.028;8.916;2023-07-22T09:43:38;13.67;;;8.00;;
6842;SDS011;3460;52.028;8.916;2023-07-22T09:46:05;30.00;;;18.50;;
6842;SDS011;3460;52.028;8.916;2023-07-22T09:48:39;14.53;;;9.50;;
6842;SDS011;3460;52.028;8.916;2023-07-22T09:51:11;12.17;;;7.37;;
6842;SDS011;3460;52.028;8.916;2023-07-22T09:53:43;9.47;;;7.07;;
6842;SDS011;3460;52.028;8.916;2023-07-22T09:56:12;10.17;;;6.97;;
6842;SDS011;3460;52.028;8.916;2023-07-22T09:58:39;11.30;;;7.70;;
6842;SDS011;3460;52.028;8.916;2023-07-22T10:01:07;11.17;;;7.90;;
6842;SDS011;3460;52.028;8.916;2023-07-22T10:03:37;12.60;;;8.17;;
6842;SDS011;3460;52.028;8.916;2023-07-22T10:06:05;9.63;;;6.97;;
6842;SDS011;3460;52.028;8.916;2023-07-22T10:08:33;13.10;;;7.67;;
6842;SDS011;3460;52.028;8.916;2023-07-22T10:11:03;13.07;;;8.00;;
6842;SDS011;3460;52.028;8.916;2023-07-22T10:13:35;10.77;;;7.77;;
6842;SDS011;3460;52.028;8.916;2023-07-22T10:16:02;12.63;;;7.90;;
6842;SDS011;3460;52.028;8.916;2023-07-22T10:18:30;11.47;;;7.93;;
6842;SDS011;3460;52.028;8.916;2023-07-22T10:20:57;15.03;;;8.50;;
6842;SDS011;3460;52.028;8.916;2023-07-22T10:23:26;10.70;;;7.43;;
6842;SDS011;3460;52.028;8.916;2023-07-22T10:25:54;9.90;;;7.37;;
6842;SDS011;3460;52.028;8.916;2023-07-22T10:28:21;12.63;;;7.60;;
6842;SDS011;3460;52.028;8.916;2023-07-22T10:30:50;9.67;;;7.50;;
6842;SDS011;3460;52.028;8.916;2023-07-22T10:33:18;8.07;;;6.83;;
6842;SDS011;3460;52.028;8.916;2023-07-22T10:36:02;11.20;;;6.13;;
6842;SDS011;3460;52.028;8.916;2023-07-22T10:38:30;8.17;;;6.30;;
6842;SDS011;3460;52.028;8.916;2023-07-22T10:40:58;7.67;;;5.73;;
6842;SDS011;3460;52.028;8.916;2023-07-22T10:43:25;10.73;;;5.97;;
6842;SDS011;3460;52.028;8.916;2023-07-22T10:45:55;7.47;;;5.78;;
6842;SDS011;3460;52.028;8.916;2023-07-22T10:48:24;7.80;;;6.10;;
6842;SDS011;3460;52.028;8.916;2023-07-22T10:50:53;8.95;;;6.10;;
6842;SDS011;3460;52.028;8.916;2023-07-22T10:53:28;8.07;;;5.90;;
6842;SDS011;3460;52.028;8.916;2023-07-22T10:56:02;9.52;;;5.85;;
6842;SDS011;3460;52.028;8.916;2023-07-22T10:58:35;7.55;;;5.70;;
6842;SDS011;3460;52.028;8.916;2023-07-22T11:01:23;8.18;;;6.05;;
6842;SDS011;3460;52.028;8.916;2023-07-22T11:04:06;8.05;;;5.90;;
6842;SDS011;3460;52.028;8.916;2023-07-22T11:06:36;7.07;;;5.35;;
6842;SDS011;3460;52.028;8.916;2023-07-22T11:09:03;7.38;;;5.35;;
6842;SDS011;3460;52.028;8.916;2023-07-22T11:11:37;9.23;;;5.70;;
6842;SDS011;3460;52.028;8.916;2023-07-22T11:14:12;7.47;;;5.57;;
6842;SDS011;3460;52.028;8.916;2023-07-22T11:16:45;8.70;;;5.78;;
6842;SDS011;3460;52.028;8.916;2023-07-22T11:19:13;7.35;;;5.80;;
6842;SDS011;3460;52.028;8.916;2023-07-22T11:21:40;6.75;;;5.18;;
6842;SDS011;3460;52.028;8.916;2023-07-22T11:24:08;7.53;;;5.35;;
6842;SDS011;3460;52.028;8.916;2023-07-22T11:26:35;6.35;;;5.03;;
6842;SDS011;3460;52.028;8.916;2023-07-22T11:29:03;7.07;;;5.70;;
6842;SDS011;3460;52.028;8.916;2023-07-22T11:31:31;7.93;;;5.80;;
6842;SDS011;3460;52.028;8.916;2023-07-22T11:33:59;9.55;;;5.80;;
6842;SDS011;3460;52.028;8.916;2023-07-22T11:36:26;9.20;;;5.65;;
6842;SDS011;3460;52.028;8.916;2023-07-22T11:38:53;7.25;;;5.50;;
6842;SDS011;3460;52.028;8.916;2023-07-22T11:41:26;5.70;;;4.85;;
6842;SDS011;3460;52.028;8.916;2023-07-22T11:43:53;7.63;;;5.47;;
6842;SDS011;3460;52.028;8.916;2023-07-22T11:46:22;7.75;;;5.57;;
6842;SDS011;3460;52.028;8.916;2023-07-22T11:48:49;7.63;;;5.32;;
6842;SDS011;3460;52.028;8.916;2023-07-22T11:51:19;6.75;;;5.50;;
6842;SDS011;3460;52.028;8.916;2023-07-22T11:53:47;6.60;;;5.60;;
6842;SDS011;3460;52.028;8.916;2023-07-22T11:56:18;7.88;;;5.38;;
6842;SDS011;3460;52.028;8.916;2023-07-22T11:58:50;7.00;;;5.22;;
6842;SDS011;3460;52.028;8.916;2023-07-22T12:01:17;7.22;;;5.50;;
6842;SDS011;3460;52.028;8.916;2023-07-22T12:03:45;6.70;;;5.88;;
6842;SDS011;3460;52.028;8.916;2023-07-22T12:06:12;6.60;;;5.63;;
6842;SDS011;3460;52.028;8.916;2023-07-22T12:08:44;9.07;;;5.45;;
6842;SDS011;3460;52.028;8.916;2023-07-22T12:11:18;6.60;;;5.60;;
6842;SDS011;3460;52.028;8.916;2023-07-22T12:13:45;9.10;;;5.75;;
6842;SDS011;3460;52.028;8.916;2023-07-22T12:16:20;8.85;;;5.60;;
6842;SDS011;3460;52.028;8.916;2023-07-22T12:18:48;9.43;;;5.20;;
6842;SDS011;3460;52.028;8.916;2023-07-22T12:21:15;6.13;;;5.05;;
6842;SDS011;3460;52.028;8.916;2023-07-22T12:23:45;8.00;;;5.38;;
6842;SDS011;3460;52.028;8.916;2023-07-22T12:26:12;9.20;;;5.80;;
6842;SDS011;3460;52.028;8.916;2023-07-22T12:28:38;6.53;;;5.38;;
6842;SDS011;3460;52.028;8.916;2023-07-22T12:31:05;9.25;;;4.57;;
6842;SDS011;3460;52.028;8.916;2023-07-22T12:33:32;5.60;;;4.90;;
6842;SDS011;3460;52.028;8.916;2023-07-22T12:35:59;6.57;;;5.28;;
6842;SDS011;3460;52.028;8.916;2023-07-22T12:38:26;6.13;;;5.10;;
6842;SDS011;3460;52.028;8.916;2023-07-22T12:40:54;7.15;;;5.28;;
6842;SDS011;3460;52.028;8.916;2023-07-22T12:43:21;7.85;;;5.18;;
6842;SDS011;3460;52.028;8.916;2023-07-22T12:45:48;6.78;;;4.60;;
6842;SDS011;3460;52.028;8.916;2023-07-22T12:48:14;6.03;;;4.50;;
6842;SDS011;3460;52.028;8.916;2023-07-22T12:50:42;7.97;;;4.85;;
6842;SDS011;3460;52.028;8.916;2023-07-22T12:53:09;5.90;;;4.50;;
6842;SDS011;3460;52.028;8.916;2023-07-22T12:55:35;5.85;;;4.43;;
6842;SDS011;3460;52.028;8.916;2023-07-22T12:58:04;6.25;;;4.50;;
6842;SDS011;3460;52.028;8.916;2023-07-22T13:00:30;11.45;;;4.03;;
6842;SDS011;3460;52.028;8.916;2023-07-22T13:02:57;5.65;;;4.30;;
6842;SDS011;3460;52.028;8.916;2023-07-22T13:05:24;5.13;;;3.88;;
6842;SDS011;3460;52.028;8.916;2023-07-22T13:07:51;4.75;;;4.18;;
6842;SDS011;3460;52.028;8.916;2023-07-22T13:10:18;6.38;;;3.63;;
6842;SDS011;3460;52.028;8.916;2023-07-22T13:12:47;5.78;;;3.28;;
6842;SDS011;3460;52.028;8.916;2023-07-22T13:15:15;3.58;;;3.28;;
6842;SDS011;3460;52.028;8.916;2023-07-22T13:17:41;12.13;;;10.68;;
6842;SDS011;3460;52.028;8.916;2023-07-22T13:20:09;12.63;;;10.48;;
6842;SDS011;3460;52.028;8.916;2023-07-22T13:22:36;5.38;;;3.80;;
6842;SDS011;3460;52.028;8.916;2023-07-22T13:25:04;5.20;;;3.55;;
6842;SDS011;3460;52.028;8.916;2023-07-22T13:27:31;4.32;;;3.72;;
6842;SDS011;3460;52.028;8.916;2023-07-22T13:29:58;5.93;;;4.13;;
6842;SDS011;3460;52.028;8.916;2023-07-22T13:32:27;6.18;;;3.65;;
6842;SDS011;3460;52.028;8.916;2023-07-22T13:34:54;4.03;;;3.40;;
6842;SDS011;3460;52.028;8.916;2023-07-22T13:37:20;4.68;;;3.60;;
6842;SDS011;3460;52.028;8.916;2023-07-22T13:39:47;4.10;;;3.70;;
6842;SDS011;3460;52.028;8.916;2023-07-22T13:42:14;5.18;;;3.88;;
6842;SDS011;3460;52.028;8.916;2023-07-22T13:44:41;4.03;;;3.63;;
6842;SDS011;3460;52.028;8.916;2023-07-22T13:47:07;6.00;;;3.83;;
6842;SDS011;3460;52.028;8.916;2023-07-22T13:49:35;6.05;;;3.78;;
6842;SDS011;3460;52.028;8.916;2023-07-22T13:52:02;4.93;;;3.83;;
6842;SDS011;3460;52.028;8.916;2023-07-22T13:54:30;32.85;;;23.35;;
6842;SDS011;3460;52.028;8.916;2023-07-22T13:56:56;9.32;;;7.70;;
6842;SDS011;3460;52.028;8.916;2023-07-22T13:59:23;4.47;;;3.65;;
6842;SDS011;3460;52.028;8.916;2023-07-22T14:01:50;6.18;;;3.72;;
6842;SDS011;3460;52.028;8.916;2023-07-22T14:04:17;4.93;;;3.40;;
6842;SDS011;3460;52.028;8.916;2023-07-22T14:06:45;5.78;;;4.00;;
6842;SDS011;3460;52.028;8.916;2023-07-22T14:09:12;3.63;;;3.30;;
6842;SDS011;3460;52.028;8.916;2023-07-22T14:11:38;5.00;;;3.55;;
6842;SDS011;3460;52.028;8.916;2023-07-22T14:14:05;4.45;;;3.72;;
6842;SDS011;3460;52.028;8.916;2023-07-22T14:16:32;5.18;;;3.30;;
6842;SDS011;3460;52.028;8.916;2023-07-22T14:18:59;3.75;;;3.42;;
6842;SDS011;3460;52.028;8.916;2023-07-22T14:21:26;3.83;;;3.33;;
6842;SDS011;3460;52.028;8.916;2023-07-22T14:23:54;4.88;;;3.33;;
6842;SDS011;3460;52.028;8.916;2023-07-22T14:26:21;6.47;;;3.50;;
6842;SDS011;3460;52.028;8.916;2023-07-22T14:28:47;5.00;;;3.70;;
6842;SDS011;3460;52.028;8.916;2023-07-22T14:31:14;3.70;;;3.08;;
6842;SDS011;3460;52.028;8.916;2023-07-22T14:33:41;4.97;;;3.03;;
6842;SDS011;3460;52.028;8.916;2023-07-22T14:36:08;6.90;;;3.65;;
6842;SDS011;3460;52.028;8.916;2023-07-22T14:38:35;3.75;;;3.28;;
6842;SDS011;3460;52.028;8.916;2023-07-22T14:41:03;5.88;;;3.47;;
6842;SDS011;3460;52.028;8.916;2023-07-22T14:43:29;7.57;;;3.13;;
6842;SDS011;3460;52.028;8.916;2023-07-22T14:45:56;4.07;;;3.25;;
6842;SDS011;3460;52.028;8.916;2023-07-22T14:48:23;7.85;;;3.35;;
6842;SDS011;3460;52.028;8.916;2023-07-22T14:50:50;4.10;;;3.22;;
6842;SDS011;3460;52.028;8.916;2023-07-22T14:53:17;4.13;;;3.30;;
6842;SDS011;3460;52.028;8.916;2023-07-22T14:55:44;3.88;;;2.85;;
6842;SDS011;3460;52.028;8.916;2023-07-22T14:58:12;3.45;;;2.90;;
6842;SDS011;3460;52.028;8.916;2023-07-22T15:00:39;6.88;;;2.80;;
6842;SDS011;3460;52.028;8.916;2023-07-22T15:03:06;5.57;;;3.13;;
6842;SDS011;3460;52.028;8.916;2023-07-22T15:05:32;3.78;;;3.20;;